Aviation Digital Data Service (ADDS)

Output produced by METARs form (0932 UTC 28 September 2021)
found at http://www.aviationweather.gov/metar/data/
 
VTSM 280900Z 32007KT 9999 FEW020 32/25 Q1007 NOSIG
VTSM 280800Z 33009KT 9999 FEW020 33/25 Q1008 NOSIG
VTSM 280700Z 31008KT 9999 VCSH FEW018TCU 32/25 Q1008 NOSIG
VTSM 280600Z 30007KT 9999 FEW020 32/26 Q1009 NOSIG
VTSM 280500Z 31009KT 9999 FEW020 32/25 Q1010 NOSIG
VTSM 280400Z 33007KT 9999 FEW018TCU 31/25 Q1011 NOSIG
VTSM 280300Z 33005KT 9999 FEW018TCU 31/26 Q1011 NOSIG
VTSM 280200Z 36005KT 9999 FEW020 31/25 Q1011 NOSIG
VTSM 280100Z 00000KT 9999 FEW020 29/25 Q1010 NOSIG
VTSM 271300Z 00000KT 9999 FEW020 28/25 Q1009 NOSIG
VTSM 271200Z 00000KT 9999 FEW020 29/24 Q1008 NOSIG
VTSM 271100Z 06003KT 9999 FEW020 30/25 Q1007 NOSIG
VTSM 271000Z 06004KT 9999 FEW020 30/24 Q1007 NOSIG
TAF VTSM 280500Z 2806/2906 06006KT 9999 SCT020